PWSweather.com
Personal Weather Stations
Station Observations
265NC
Va2kh, Stcasimir, QC G0A 3L0

Va2khStcasimir, QC G0A 3L0

Lat: 46.65839, Lon: -72.13905

Elevation: 105

Station Type: National Geographic 265NC

http://www.qsl.net/va2kh

High Low Average
Temperature 85.8°F29.9°F 59.4°F15.2°F 71.0°F21.7°F
Dew Point 71.5°F21.9°F 59.1°F15.1°F 65.3°F18.5°F
Winds 5.1 mph WSW8.2 mph WSW Calm Calm 1.6 mph 2.6 mph
Wind Gusts 18.3 mph29.5 mph 0.7 mph1.1 mph 7.0 mph11.3 mph
Humidity 99% 56% 84%
Pressure 29.93 in1013.50 in 29.83 in1010.20 in -
Precipitation 1.59 in40.40 in - -
Hour Temp Dew Point Humidity Winds Wind Gusts Pressure Precip Precip Rate Daily Precip Total
12:00 AM 59.9°F15.5°C 59.6°F15.3°C 99% 0.6 mph SSE1.0 kmh SSE 3.1 mph5.0 kmh 29.93 in1013.5 mb 0.02 in0.5 mm 0.00 in0.0 mm 0.02 in0.5 mm
12:15 AM 59.9°F15.5°C 59.6°F15.3°C 99% 0.8 mph ESE1.3 kmh ESE 3.8 mph6.1 kmh 29.92 in1013.2 mb 0.04 in1.0 mm 0.08 in2.0 mm 0.01 in0.3 mm
12:30 AM 59.9°F15.5°C 59.6°F15.3°C 99% 0.6 mph SE1.0 kmh SE 3.8 mph6.1 kmh 29.92 in1013.2 mb 0.05 in1.3 mm 0.04 in1.0 mm 0.02 in0.5 mm
12:45 AM 59.9°F15.5°C 59.6°F15.3°C 99% 0.9 mph SSE1.4 kmh SSE 4.5 mph7.2 kmh 29.91 in1012.9 mb 0.04 in1.0 mm 0.00 in0.0 mm 0.02 in0.5 mm
01:00 AM 59.7°F15.4°C 59.5°F15.3°C 99% 1.3 mph SE2.1 kmh SE 4.5 mph7.2 kmh 29.90 in1012.5 mb 0.07 in1.8 mm 0.04 in1.0 mm 0.07 in1.8 mm
01:15 AM 59.7°F15.4°C 59.5°F15.3°C 99% 1.3 mph ESE2.1 kmh ESE 5.4 mph8.7 kmh 29.89 in1012.2 mb 0.11 in2.8 mm 0.16 in4.1 mm 0.12 in3.0 mm
01:30 AM 59.7°F15.4°C 59.5°F15.3°C 99% 1.7 mph ESE2.7 kmh ESE 7.6 mph12.2 kmh 29.89 in1012.2 mb 0.14 in3.6 mm 0.12 in3.0 mm 0.17 in4.3 mm
01:45 AM 59.5°F15.3°C 59.3°F15.2°C 99% 3.1 mph SE5.0 kmh SE 9.8 mph15.8 kmh 29.88 in1011.9 mb 0.19 in4.8 mm 0.20 in5.1 mm 0.21 in5.3 mm
02:00 AM 59.5°F15.3°C 59.3°F15.2°C 99% 1.9 mph SE3.1 kmh SE 8.3 mph13.4 kmh 29.87 in1011.5 mb 0.18 in4.6 mm 0.00 in0.0 mm 0.25 in6.4 mm
02:15 AM 59.5°F15.3°C 59.3°F15.2°C 99% 1.6 mph ESE2.6 kmh ESE 7.6 mph12.2 kmh 29.86 in1011.2 mb 0.14 in3.6 mm 0.00 in0.0 mm 0.27 in6.9 mm
02:30 AM 59.5°F15.3°C 59.3°F15.2°C 99% 1.6 mph ESE2.6 kmh ESE 6.9 mph11.1 kmh 29.86 in1011.2 mb 0.12 in3.0 mm 0.00 in0.0 mm 0.28 in7.1 mm
02:45 AM 59.4°F15.2°C 59.1°F15.1°C 99% 3.2 mph ESE5.1 kmh ESE 9.2 mph14.8 kmh 29.86 in1011.2 mb 0.12 in3.0 mm 0.00 in0.0 mm 0.33 in8.4 mm
03:00 AM 59.4°F15.2°C 59.1°F15.1°C 99% 2.2 mph ESE3.5 kmh ESE 7.6 mph12.2 kmh 29.85 in1010.8 mb 0.11 in2.8 mm 0.00 in0.0 mm 0.35 in8.9 mm
03:15 AM 59.4°F15.2°C 59.1°F15.1°C 99% 2.4 mph SE3.9 kmh SE 6.9 mph11.1 kmh 29.85 in1010.8 mb 0.09 in2.3 mm 0.00 in0.0 mm 0.37 in9.4 mm
03:30 AM 59.4°F15.2°C 59.1°F15.1°C 99% 3.7 mph E6.0 kmh E 8.3 mph13.4 kmh 29.84 in1010.5 mb 0.08 in2.0 mm 0.00 in0.0 mm 0.37 in9.4 mm
03:45 AM 59.4°F15.2°C 59.1°F15.1°C 99% 1.5 mph E2.4 kmh E 5.4 mph8.7 kmh 29.84 in1010.5 mb 0.04 in1.0 mm 0.00 in0.0 mm 0.37 in9.4 mm
04:00 AM 59.4°F15.2°C 59.1°F15.1°C 99% 0.4 mph SE0.6 kmh SE 3.8 mph6.1 kmh 29.84 in1010.5 mb 0.02 in0.5 mm 0.00 in0.0 mm 0.38 in9.7 mm
04:15 AM 59.4°F15.2°C 59.1°F15.1°C 99% Calm Calm 2.2 mph3.5 kmh 29.84 in1010.5 mb 0.01 in0.3 mm 0.00 in0.0 mm 0.38 in9.7 mm
04:30 AM 59.4°F15.2°C 59.1°F15.1°C 99% 0.3 mph SE0.5 kmh SE 3.1 mph5.0 kmh 29.84 in1010.5 mb 0.01 in0.3 mm 0.00 in0.0 mm 0.38 in9.7 mm
04:45 AM 59.4°F15.2°C 59.1°F15.1°C 99% 0.3 mph E0.5 kmh E 2.2 mph3.5 kmh 29.84 in1010.5 mb 0.01 in0.3 mm 0.00 in0.0 mm 0.38 in9.7 mm
05:00 AM 59.4°F15.2°C 59.1°F15.1°C 99% Calm Calm 1.6 mph2.6 kmh 29.84 in1010.5 mb 0.00 in0.0 mm 0.00 in0.0 mm 0.38 in9.7 mm
05:15 AM 59.5°F15.3°C 59.3°F15.2°C 99% 0.3 mph SE0.5 kmh SE 2.2 mph3.5 kmh 29.83 in1010.2 mb 0.00 in0.0 mm 0.00 in0.0 mm 0.38 in9.7 mm
05:30 AM 59.5°F15.3°C 59.3°F15.2°C 99% 0.5 mph SE0.8 kmh SE 3.1 mph5.0 kmh 29.83 in1010.2 mb 0.00 in0.0 mm 0.00 in0.0 mm 0.38 in9.7 mm
05:45 AM 59.5°F15.3°C 59.3°F15.2°C 99% 0.1 mph NE0.2 kmh NE 3.1 mph5.0 kmh 29.84 in1010.5 mb 0.00 in0.0 mm 0.00 in0.0 mm 0.38 in9.7 mm
06:00 AM 59.7°F15.4°C 59.5°F15.3°C 99% Calm Calm 2.2 mph3.5 kmh 29.84 in1010.5 mb 0.00 in0.0 mm 0.00 in0.0 mm 0.38 in9.7 mm
06:15 AM 59.7°F15.4°C 59.5°F15.3°C 99% Calm Calm 0.7 mph1.1 kmh 29.84 in1010.5 mb 0.00 in0.0 mm 0.00 in0.0 mm 0.38 in9.7 mm
06:30 AM 59.7°F15.4°C 59.5°F15.3°C 99% Calm Calm 0.7 mph1.1 kmh 29.84 in1010.5 mb 0.00 in0.0 mm 0.00 in0.0 mm 0.38 in9.7 mm
07:00 AM 60.3°F15.7°C 60.0°F15.6°C 99% 0.5 mph SW0.8 kmh SW 3.1 mph5.0 kmh 29.84 in1010.5 mb 0.00 in0.0 mm 0.00 in0.0 mm 0.38 in9.7 mm
07:15 AM 60.6°F15.9°C 60.4°F15.8°C 99% 0.3 mph SW0.5 kmh SW 3.1 mph5.0 kmh 29.83 in1010.2 mb 0.00 in0.0 mm 0.00 in0.0 mm 0.38 in9.7 mm
07:30 AM 61.0°F16.1°C 60.7°F15.9°C 99% 0.1 mph W0.2 kmh W 2.2 mph3.5 kmh 29.85 in1010.8 mb 0.00 in0.0 mm 0.00 in0.0 mm 0.38 in9.7 mm
07:45 AM 61.3°F16.3°C 61.1°F16.2°C 99% 0.3 mph W0.5 kmh W 3.8 mph6.1 kmh 29.85 in1010.8 mb 0.00 in0.0 mm 0.00 in0.0 mm 0.38 in9.7 mm
08:00 AM 61.7°F16.5°C 61.4°F16.3°C 99% 0.6 mph W1.0 kmh W 4.5 mph7.2 kmh 29.86 in1011.2 mb 0.00 in0.0 mm 0.00 in0.0 mm 0.38 in9.7 mm
08:15 AM 62.1°F16.7°C 61.8°F16.6°C 99% 0.7 mph WNW1.1 kmh WNW 3.1 mph5.0 kmh 29.85 in1010.8 mb 0.00 in0.0 mm 0.00 in0.0 mm 0.38 in9.7 mm
08:30 AM 62.8°F17.1°C 62.5°F16.9°C 99% 1.1 mph WSW1.8 kmh WSW 3.8 mph6.1 kmh 29.86 in1011.2 mb 0.00 in0.0 mm 0.00 in0.0 mm 0.38 in9.7 mm
08:45 AM 64.0°F17.8°C 63.8°F17.7°C 99% 0.4 mph WSW0.6 kmh WSW 3.1 mph5.0 kmh 29.85 in1010.8 mb 0.00 in0.0 mm 0.00 in0.0 mm 0.38 in9.7 mm
09:00 AM 64.6°F18.1°C 64.3°F17.9°C 99% 0.8 mph NW1.3 kmh NW 6.0 mph9.7 kmh 29.85 in1010.8 mb 0.00 in0.0 mm 0.00 in0.0 mm 0.38 in9.7 mm
09:15 AM 65.5°F18.6°C 65.2°F18.4°C 99% 1.0 mph WNW1.6 kmh WNW 6.0 mph9.7 kmh 29.86 in1011.2 mb 0.00 in0.0 mm 0.00 in0.0 mm 0.38 in9.7 mm
09:30 AM 66.9°F19.4°C 66.7°F19.3°C 99% 1.4 mph W2.3 kmh W 6.0 mph9.7 kmh 29.85 in1010.8 mb 0.00 in0.0 mm 0.00 in0.0 mm 0.38 in9.7 mm
09:45 AM 67.8°F19.9°C 67.6°F19.8°C 99% 0.8 mph W1.3 kmh W 6.0 mph9.7 kmh 29.85 in1010.8 mb 0.00 in0.0 mm 0.00 in0.0 mm 0.38 in9.7 mm
10:00 AM 68.4°F20.2°C 68.1°F20.1°C 99% 1.0 mph W1.6 kmh W 5.4 mph8.7 kmh 29.85 in1010.8 mb 0.00 in0.0 mm 0.00 in0.0 mm 0.38 in9.7 mm
10:15 AM 70.0°F21.1°C 69.7°F20.9°C 99% 1.2 mph WNW1.9 kmh WNW 8.3 mph13.4 kmh 29.85 in1010.8 mb 0.00 in0.0 mm 0.00 in0.0 mm 0.38 in9.7 mm
10:30 AM 72.0°F22.2°C 70.5°F21.4°C 95% 1.1 mph W1.8 kmh W 6.9 mph11.1 kmh 29.86 in1011.2 mb 0.00 in0.0 mm 0.00 in0.0 mm 0.38 in9.7 mm
10:45 AM 71.8°F22.1°C 70.0°F21.1°C 94% 1.3 mph WNW2.1 kmh WNW 6.0 mph9.7 kmh 29.86 in1011.2 mb 0.00 in0.0 mm 0.00 in0.0 mm 0.38 in9.7 mm
11:00 AM 74.1°F23.4°C 70.4°F21.3°C 88% 2.9 mph WNW4.7 kmh WNW 9.2 mph14.8 kmh 29.86 in1011.2 mb 0.00 in0.0 mm 0.00 in0.0 mm 0.38 in9.7 mm
11:15 AM 74.5°F23.6°C 70.4°F21.3°C 87% 3.5 mph W5.6 kmh W 13.0 mph20.9 kmh 29.86 in1011.2 mb 0.00 in0.0 mm 0.00 in0.0 mm 0.38 in9.7 mm
11:30 AM 74.8°F23.8°C 70.1°F21.2°C 85% 2.4 mph WSW3.9 kmh WSW 15.2 mph24.5 kmh 29.86 in1011.2 mb 0.00 in0.0 mm 0.00 in0.0 mm 0.38 in9.7 mm
11:45 AM 77.4°F25.2°C 71.5°F21.9°C 82% 2.9 mph W4.7 kmh W 11.4 mph18.3 kmh 29.85 in1010.8 mb 0.00 in0.0 mm 0.00 in0.0 mm 0.38 in9.7 mm
12:00 PM 78.8°F26.0°C 70.6°F21.4°C 76% 3.2 mph NW5.1 kmh NW 10.7 mph17.2 kmh 29.86 in1011.2 mb 0.00 in0.0 mm 0.00 in0.0 mm 0.38 in9.7 mm
12:15 PM 78.3°F25.7°C 69.7°F20.9°C 75% 3.6 mph W5.8 kmh W 15.2 mph24.5 kmh 29.85 in1010.8 mb 0.00 in0.0 mm 0.00 in0.0 mm 0.38 in9.7 mm
12:30 PM 78.3°F25.7°C 70.1°F21.2°C 76% 3.1 mph WNW5.0 kmh WNW 18.3 mph29.5 kmh 29.86 in1011.2 mb 0.00 in0.0 mm 0.00 in0.0 mm 0.38 in9.7 mm
12:45 PM 77.9°F25.5°C 69.4°F20.8°C 75% 2.7 mph W4.3 kmh W 14.5 mph23.3 kmh 29.85 in1010.8 mb 0.00 in0.0 mm 0.00 in0.0 mm 0.38 in9.7 mm
01:00 PM 79.7°F26.5°C 69.9°F21.1°C 72% 3.1 mph W5.0 kmh W 12.1 mph19.5 kmh 29.86 in1011.2 mb 0.00 in0.0 mm 0.00 in0.0 mm 0.38 in9.7 mm
01:15 PM 79.9°F26.6°C 69.7°F20.9°C 71% 3.4 mph W5.5 kmh W 10.7 mph17.2 kmh 29.86 in1011.2 mb 0.00 in0.0 mm 0.00 in0.0 mm 0.38 in9.7 mm
01:30 PM 77.9°F25.5°C 69.4°F20.8°C 75% 2.3 mph W3.7 kmh W 10.7 mph17.2 kmh 29.86 in1011.2 mb 0.00 in0.0 mm 0.00 in0.0 mm 0.38 in9.7 mm
01:45 PM 78.8°F26.0°C 69.9°F21.1°C 74% 3.7 mph W6.0 kmh W 12.1 mph19.5 kmh 29.85 in1010.8 mb 0.00 in0.0 mm 0.00 in0.0 mm 0.38 in9.7 mm
02:00 PM 77.2°F25.1°C 69.1°F20.6°C 76% 3.8 mph W6.1 kmh W 14.5 mph23.3 kmh 29.86 in1011.2 mb 0.00 in0.0 mm 0.00 in0.0 mm 0.38 in9.7 mm
02:15 PM 80.1°F26.7°C 69.0°F20.6°C 69% 4.4 mph WNW7.1 kmh WNW 15.2 mph24.5 kmh 29.85 in1010.8 mb 0.00 in0.0 mm 0.00 in0.0 mm 0.38 in9.7 mm
02:30 PM 80.2°F26.8°C 69.6°F20.9°C 70% 4.2 mph W6.8 kmh W 15.2 mph24.5 kmh 29.86 in1011.2 mb 0.00 in0.0 mm 0.00 in0.0 mm 0.38 in9.7 mm
02:45 PM 80.8°F27.1°C 68.8°F20.4°C 67% 4.4 mph W7.1 kmh W 15.9 mph25.6 kmh 29.84 in1010.5 mb 0.00 in0.0 mm 0.00 in0.0 mm 0.38 in9.7 mm
03:00 PM 82.0°F27.8°C 69.2°F20.7°C 65% 4.0 mph WNW6.4 kmh WNW 15.9 mph25.6 kmh 29.84 in1010.5 mb 0.00 in0.0 mm 0.00 in0.0 mm 0.38 in9.7 mm
03:15 PM 82.0°F27.8°C 67.8°F19.9°C 62% 4.0 mph NW6.4 kmh NW 14.5 mph23.3 kmh 29.84 in1010.5 mb 0.00 in0.0 mm 0.00 in0.0 mm 0.38 in9.7 mm
03:30 PM 83.5°F28.6°C 69.1°F20.6°C 62% 3.1 mph WNW5.0 kmh WNW 12.1 mph19.5 kmh 29.84 in1010.5 mb 0.00 in0.0 mm 0.00 in0.0 mm 0.38 in9.7 mm
03:45 PM 84.2°F29.0°C 68.4°F20.2°C 59% 2.4 mph NW3.9 kmh NW 10.7 mph17.2 kmh 29.85 in1010.8 mb 0.00 in0.0 mm 0.00 in0.0 mm 0.38 in9.7 mm
04:00 PM 83.7°F28.7°C 68.4°F20.2°C 60% 4.3 mph NW6.9 kmh NW 13.0 mph20.9 kmh 29.84 in1010.5 mb 0.00 in0.0 mm 0.00 in0.0 mm 0.38 in9.7 mm
04:15 PM 84.2°F29.0°C 68.4°F20.2°C 59% 4.1 mph WNW6.6 kmh WNW 13.0 mph20.9 kmh 29.84 in1010.5 mb 0.00 in0.0 mm 0.00 in0.0 mm 0.38 in9.7 mm
04:30 PM 82.8°F28.2°C 67.5°F19.7°C 60% 5.1 mph WSW8.2 kmh WSW 13.6 mph21.9 kmh 29.84 in1010.5 mb 0.00 in0.0 mm 0.00 in0.0 mm 0.38 in9.7 mm
04:45 PM 80.4°F26.9°C 70.2°F21.2°C 71% 1.4 mph WNW2.3 kmh WNW 6.9 mph11.1 kmh 29.84 in1010.5 mb 0.00 in0.0 mm 0.00 in0.0 mm 0.38 in9.7 mm
05:00 PM 83.8°F28.8°C 68.0°F20.0°C 59% 3.3 mph W5.3 kmh W 13.0 mph20.9 kmh 29.84 in1010.5 mb 0.00 in0.0 mm 0.00 in0.0 mm 0.38 in9.7 mm
05:15 PM 84.7°F29.3°C 69.9°F21.1°C 61% 1.8 mph WNW2.9 kmh WNW 6.9 mph11.1 kmh 29.84 in1010.5 mb 0.00 in0.0 mm 0.00 in0.0 mm 0.38 in9.7 mm
05:30 PM 85.8°F29.9°C 69.4°F20.8°C 58% 2.9 mph W4.7 kmh W 10.7 mph17.2 kmh 29.84 in1010.5 mb 0.00 in0.0 mm 0.00 in0.0 mm 0.38 in9.7 mm
05:45 PM 85.5°F29.7°C 68.0°F20.0°C 56% 3.4 mph NW5.5 kmh NW 12.1 mph19.5 kmh 29.84 in1010.5 mb 0.00 in0.0 mm 0.00 in0.0 mm 0.38 in9.7 mm
06:00 PM 85.6°F29.8°C 69.2°F20.7°C 58% 2.0 mph NW3.2 kmh NW 8.3 mph13.4 kmh 29.84 in1010.5 mb 0.00 in0.0 mm 0.00 in0.0 mm 0.38 in9.7 mm
06:15 PM 85.1°F29.5°C 69.7°F20.9°C 60% 1.7 mph WNW2.7 kmh WNW 9.2 mph14.8 kmh 29.84 in1010.5 mb 0.00 in0.0 mm 0.00 in0.0 mm 0.38 in9.7 mm
06:30 PM 85.1°F29.5°C 69.2°F20.7°C 59% 2.4 mph NW3.9 kmh NW 9.8 mph15.8 kmh 29.84 in1010.5 mb 0.00 in0.0 mm 0.00 in0.0 mm 0.38 in9.7 mm
06:45 PM 85.3°F29.6°C 69.4°F20.8°C 59% 1.6 mph NW2.6 kmh NW 6.9 mph11.1 kmh 29.84 in1010.5 mb 0.00 in0.0 mm 0.00 in0.0 mm 0.38 in9.7 mm
07:00 PM 85.5°F29.7°C 69.1°F20.6°C 58% 1.8 mph W2.9 kmh W 7.6 mph12.2 kmh 29.85 in1010.8 mb 0.00 in0.0 mm 0.00 in0.0 mm 0.38 in9.7 mm
07:15 PM 84.4°F29.1°C 68.5°F20.3°C 59% 1.7 mph WNW2.7 kmh WNW 6.0 mph9.7 kmh 29.84 in1010.5 mb 0.00 in0.0 mm 0.00 in0.0 mm 0.38 in9.7 mm
07:30 PM 81.3°F27.4°C 68.0°F20.0°C 64% 0.9 mph WNW1.4 kmh WNW 6.0 mph9.7 kmh 29.84 in1010.5 mb 0.00 in0.0 mm 0.00 in0.0 mm 0.38 in9.7 mm
07:45 PM 79.5°F26.4°C 68.1°F20.1°C 68% 1.0 mph WNW1.6 kmh WNW 3.8 mph6.1 kmh 29.85 in1010.8 mb 0.00 in0.0 mm 0.00 in0.0 mm 0.38 in9.7 mm
08:00 PM 78.3°F25.7°C 68.1°F20.1°C 71% 0.6 mph NW1.0 kmh NW 5.4 mph8.7 kmh 29.85 in1010.8 mb 0.00 in0.0 mm 0.00 in0.0 mm 0.38 in9.7 mm
08:15 PM 77.4°F25.2°C 67.7°F19.8°C 72% 0.8 mph W1.3 kmh W 5.4 mph8.7 kmh 29.84 in1010.5 mb 0.00 in0.0 mm 0.00 in0.0 mm 0.38 in9.7 mm
08:30 PM 76.1°F24.5°C 67.3°F19.6°C 74% 0.3 mph W0.5 kmh W 3.1 mph5.0 kmh 29.85 in1010.8 mb 0.00 in0.0 mm 0.00 in0.0 mm 0.38 in9.7 mm
08:45 PM 74.1°F23.4°C 66.5°F19.2°C 77% Calm Calm 1.6 mph2.6 kmh 29.85 in1010.8 mb 0.00 in0.0 mm 0.00 in0.0 mm 0.38 in9.7 mm
09:00 PM 73.0°F22.8°C 66.9°F19.4°C 81% Calm Calm 2.2 mph3.5 kmh 29.86 in1011.2 mb 0.00 in0.0 mm 0.00 in0.0 mm 0.38 in9.7 mm
09:15 PM 72.7°F22.6°C 66.9°F19.4°C 82% Calm Calm 2.2 mph3.5 kmh 29.86 in1011.2 mb 0.00 in0.0 mm 0.00 in0.0 mm 0.38 in9.7 mm
09:30 PM 72.1°F22.3°C 67.1°F19.5°C 84% Calm Calm 1.6 mph2.6 kmh 29.87 in1011.5 mb 0.00 in0.0 mm 0.00 in0.0 mm 0.38 in9.7 mm
09:45 PM 72.0°F22.2°C 66.9°F19.4°C 84% Calm Calm 2.2 mph3.5 kmh 29.88 in1011.9 mb 0.00 in0.0 mm 0.00 in0.0 mm 0.38 in9.7 mm
10:00 PM 71.4°F21.9°C 66.7°F19.3°C 85% 0.1 mph WNW0.2 kmh WNW 3.1 mph5.0 kmh 29.88 in1011.9 mb 0.00 in0.0 mm 0.00 in0.0 mm 0.38 in9.7 mm
10:15 PM 71.4°F21.9°C 66.7°F19.3°C 85% Calm Calm 2.2 mph3.5 kmh 29.89 in1012.2 mb 0.00 in0.0 mm 0.00 in0.0 mm 0.38 in9.7 mm
10:30 PM 71.1°F21.7°C 66.7°F19.3°C 86% Calm Calm 2.2 mph3.5 kmh 29.88 in1011.9 mb 0.00 in0.0 mm 0.00 in0.0 mm 0.38 in9.7 mm
10:45 PM 70.5°F21.4°C 66.5°F19.2°C 87% 0.1 mph W0.2 kmh W 3.1 mph5.0 kmh 29.89 in1012.2 mb 0.00 in0.0 mm 0.00 in0.0 mm 0.38 in9.7 mm
11:00 PM 71.4°F21.9°C 67.4°F19.7°C 87% 1.9 mph N3.1 kmh N 6.0 mph9.7 kmh 29.90 in1012.5 mb 0.00 in0.0 mm 0.00 in0.0 mm 0.38 in9.7 mm
11:15 PM 73.0°F22.8°C 67.6°F19.8°C 83% 0.7 mph N1.1 kmh N 3.8 mph6.1 kmh 29.90 in1012.5 mb 0.00 in0.0 mm 0.00 in0.0 mm 0.38 in9.7 mm
11:30 PM 72.5°F22.5°C 67.1°F19.5°C 83% Calm Calm 1.6 mph2.6 kmh 29.89 in1012.2 mb 0.00 in0.0 mm 0.00 in0.0 mm 0.38 in9.7 mm
11:45 PM 71.4°F21.9°C 66.4°F19.1°C 84% Calm Calm 2.2 mph3.5 kmh 29.90 in1012.5 mb 0.00 in0.0 mm 0.00 in0.0 mm 0.38 in9.7 mm